createdAt,value
2023-02-27T00:00:14.956Z,3.43
2023-02-27T00:02:43.074Z,3.52
2023-02-27T00:05:10.172Z,3.50
2023-02-27T00:07:36.682Z,3.40
2023-02-27T00:10:03.428Z,3.41
2023-02-27T00:12:31.054Z,3.39
2023-02-27T00:14:57.499Z,3.56
2023-02-27T00:17:29.377Z,3.56
2023-02-27T00:19:57.292Z,3.50
2023-02-27T00:22:24.006Z,3.45
2023-02-27T00:24:50.604Z,3.42
2023-02-27T00:27:17.150Z,3.50
2023-02-27T00:29:44.226Z,3.45
2023-02-27T00:32:10.758Z,3.58
2023-02-27T00:34:38.654Z,3.63
2023-02-27T00:37:06.294Z,3.50
2023-02-27T00:39:32.850Z,3.47
2023-02-27T00:42:00.635Z,3.48
2023-02-27T00:44:27.154Z,3.54
2023-02-27T00:46:54.794Z,3.72
2023-02-27T00:49:21.378Z,3.56
2023-02-27T00:51:47.889Z,3.47
2023-02-27T00:54:14.350Z,3.49
2023-02-27T00:56:41.231Z,3.49
2023-02-27T00:59:07.771Z,3.58
2023-02-27T01:01:34.346Z,3.70
2023-02-27T01:04:01.373Z,3.61
2023-02-27T01:06:27.905Z,3.64
2023-02-27T01:08:55.902Z,3.69
2023-02-27T01:11:22.388Z,3.69
2023-02-27T01:13:50.041Z,3.88
2023-02-27T01:16:16.618Z,3.85
2023-02-27T01:18:43.186Z,3.76
2023-02-27T01:21:09.906Z,3.79
2023-02-27T01:23:36.580Z,3.78
2023-02-27T01:26:03.127Z,3.96
2023-02-27T01:28:31.375Z,4.01
2023-02-27T01:30:58.420Z,3.94
2023-02-27T01:33:26.364Z,3.88
2023-02-27T01:35:54.227Z,3.95
2023-02-27T01:38:20.690Z,4.15
2023-02-27T01:40:47.242Z,4.03
2023-02-27T01:43:18.707Z,3.97
2023-02-27T01:45:48.623Z,3.93
2023-02-27T01:48:18.543Z,4.03
2023-02-27T01:50:48.383Z,4.03
2023-02-27T01:53:15.546Z,3.90
2023-02-27T01:55:42.761Z,3.86
2023-02-27T01:58:11.047Z,3.93
2023-02-27T02:00:38.121Z,4.08
2023-02-27T02:03:04.752Z,4.08
2023-02-27T02:05:31.793Z,3.94
2023-02-27T02:07:58.496Z,3.92
2023-02-27T02:10:25.879Z,4.06
2023-02-27T02:12:54.044Z,4.08
2023-02-27T02:15:23.988Z,3.94
2023-02-27T02:17:51.823Z,3.88
2023-02-27T02:20:18.305Z,3.92
2023-02-27T02:23:03.521Z,4.13
2023-02-27T02:25:36.137Z,3.99
2023-02-27T02:28:05.762Z,3.88
2023-02-27T02:30:45.428Z,3.93
2023-02-27T02:33:29.140Z,4.06
2023-02-27T02:36:05.071Z,3.86
2023-02-27T02:38:38.905Z,3.78
2023-02-27T02:41:08.358Z,3.91
2023-02-27T02:43:52.121Z,3.96
2023-02-27T02:46:30.589Z,3.76
2023-02-27T02:48:57.071Z,3.75
2023-02-27T02:51:29.255Z,3.92
2023-02-27T02:54:10.978Z,3.87
2023-02-27T02:56:47.147Z,3.69
2023-02-27T02:59:27.816Z,3.69
2023-02-27T03:01:59.936Z,3.73
2023-02-27T03:04:46.698Z,3.91
2023-02-27T03:07:19.557Z,3.70
2023-02-27T03:09:49.336Z,3.65
2023-02-27T03:12:18.397Z,3.69
2023-02-27T03:14:48.954Z,3.85
2023-02-27T03:17:18.994Z,3.67
2023-02-27T03:20:13.192Z,3.64
2023-02-27T03:22:42.185Z,3.65
2023-02-27T03:25:10.818Z,3.86
2023-02-27T03:27:41.456Z,3.70
2023-02-27T03:30:11.618Z,3.65
2023-02-27T03:32:38.064Z,3.62
2023-02-27T03:35:05.540Z,3.82
2023-02-27T03:37:47.436Z,3.72
2023-02-27T03:40:32.144Z,3.60
2023-02-27T03:43:01.646Z,3.55
2023-02-27T03:45:46.701Z,3.77
2023-02-27T03:48:13.186Z,3.64
2023-02-27T03:50:39.776Z,3.50
2023-02-27T03:53:09.659Z,3.58
2023-02-27T03:55:38.427Z,3.71
2023-02-27T03:58:04.985Z,3.54
2023-02-27T04:00:32.026Z,3.57
2023-02-27T04:03:00.352Z,3.59
2023-02-27T04:05:27.879Z,3.59
2023-02-27T04:08:03.312Z,3.32
2023-02-27T04:10:40.844Z,3.18
2023-02-27T04:13:13.575Z,2.91
2023-02-27T04:16:01.789Z,2.98
2023-02-27T04:18:40.237Z,2.59
2023-02-27T04:21:11.279Z,2.50
2023-02-27T04:23:40.633Z,2.60
2023-02-27T04:26:17.206Z,2.53
2023-02-27T04:29:01.050Z,2.23
2023-02-27T04:31:47.622Z,2.40
2023-02-27T04:34:19.983Z,2.76
2023-02-27T04:36:50.814Z,2.83
2023-02-27T04:39:26.666Z,2.77
2023-02-27T04:41:54.292Z,2.75
2023-02-27T04:44:22.716Z,2.95
2023-02-27T04:46:50.564Z,2.84
2023-02-27T04:49:28.487Z,2.88
2023-02-27T04:52:02.255Z,2.88
2023-02-27T04:54:35.065Z,3.11
2023-02-27T04:57:04.358Z,3.03
2023-02-27T04:59:35.240Z,2.86
2023-02-27T05:02:10.248Z,2.69
2023-02-27T05:04:38.352Z,2.77
2023-02-27T05:07:09.463Z,2.42
2023-02-27T05:09:45.470Z,2.19
2023-02-27T05:12:18.042Z,1.98
2023-02-27T05:14:45.697Z,2.18
2023-02-27T05:17:15.883Z,1.91
2023-02-27T05:19:42.835Z,1.65
2023-02-27T05:22:18.443Z,1.69
2023-02-27T05:24:48.061Z,1.83
2023-02-27T05:27:20.594Z,1.80
2023-02-27T05:29:53.616Z,1.53
2023-02-27T05:32:30.797Z,1.30
2023-02-27T05:35:04.327Z,1.44
2023-02-27T05:37:41.320Z,1.38
2023-02-27T05:40:10.754Z,1.25
2023-02-27T05:42:40.976Z,1.20
2023-02-27T05:45:16.389Z,1.29
2023-02-27T05:47:47.073Z,1.37
2023-02-27T05:50:17.500Z,1.16
2023-02-27T05:52:45.447Z,1.01
2023-02-27T05:55:24.396Z,0.78
2023-02-27T05:57:54.129Z,0.67
2023-02-27T06:00:23.983Z,0.81
2023-02-27T06:02:51.660Z,0.56
2023-02-27T06:05:20.697Z,0.29
2023-02-27T06:07:47.200Z,0.49
2023-02-27T06:10:20.950Z,0.77
2023-02-27T06:12:47.506Z,0.78
2023-02-27T06:15:14.034Z,0.76
2023-02-27T06:17:40.948Z,1.14
2023-02-27T06:20:09.665Z,1.25
2023-02-27T06:22:36.122Z,1.05
2023-02-27T06:25:04.042Z,1.38
2023-02-27T06:27:30.910Z,1.52
2023-02-27T06:29:59.294Z,1.78
2023-02-27T06:32:26.146Z,1.81
2023-02-27T06:34:54.314Z,1.84
2023-02-27T06:37:21.779Z,1.94
2023-02-27T06:39:48.316Z,2.20
2023-02-27T06:42:15.208Z,2.26
2023-02-27T06:44:41.723Z,2.26
2023-02-27T06:47:08.322Z,2.28
2023-02-27T06:49:36.017Z,2.51
2023-02-27T06:52:02.469Z,2.62
2023-02-27T06:54:30.314Z,2.61
2023-02-27T06:56:56.848Z,2.61
2023-02-27T06:59:23.557Z,2.74
2023-02-27T07:01:50.105Z,2.90
2023-02-27T07:04:17.181Z,2.83
2023-02-27T07:07:33.840Z,2.89
2023-02-27T07:09:31.688Z,3.00
2023-02-27T07:11:59.543Z,3.05
2023-02-27T07:14:26.092Z,2.98
2023-02-27T07:16:55.496Z,3.00
2023-02-27T07:19:23.061Z,3.16
2023-02-27T07:21:49.665Z,3.28
2023-02-27T07:24:16.241Z,3.21
2023-02-27T07:26:42.759Z,3.17
2023-02-27T07:29:09.984Z,3.33
2023-02-27T07:31:37.021Z,3.50
2023-02-27T07:34:04.655Z,3.48
2023-02-27T07:36:31.581Z,3.50
2023-02-27T07:38:59.905Z,3.67
2023-02-27T07:41:30.671Z,3.70
2023-02-27T07:43:57.883Z,3.65
2023-02-27T07:46:27.581Z,3.67
2023-02-27T07:48:54.549Z,3.86
2023-02-27T07:51:21.082Z,3.78
2023-02-27T07:53:47.524Z,3.84
2023-02-27T07:56:14.092Z,4.07
2023-02-27T07:58:40.820Z,4.11
2023-02-27T08:01:07.517Z,3.99
2023-02-27T08:03:34.094Z,4.11
2023-02-27T08:06:02.494Z,4.38
2023-02-27T08:08:31.170Z,4.24
2023-02-27T08:10:58.973Z,4.24
2023-02-27T08:13:48.558Z,4.47
2023-02-27T08:16:13.022Z,4.49
2023-02-27T08:18:39.665Z,4.44
2023-02-27T08:21:06.338Z,4.42
2023-02-27T08:23:34.551Z,4.54
2023-02-27T08:26:01.885Z,4.77
2023-02-27T08:28:28.926Z,4.72
2023-02-27T08:30:56.733Z,4.70
2023-02-27T08:33:24.126Z,4.80
2023-02-27T08:35:50.620Z,4.88
2023-02-27T08:38:17.125Z,5.01
2023-02-27T08:40:43.564Z,4.85
2023-02-27T08:43:10.127Z,4.87
2023-02-27T08:45:36.740Z,5.02
2023-02-27T08:48:03.472Z,5.21
2023-02-27T08:50:29.919Z,5.08
2023-02-27T08:52:57.869Z,5.16
2023-02-27T08:55:24.357Z,5.31
2023-02-27T08:57:50.804Z,5.46
2023-02-27T09:00:17.852Z,5.34
2023-02-27T09:02:44.504Z,5.30
2023-02-27T09:05:11.557Z,5.31
2023-02-27T09:07:39.754Z,5.47
2023-02-27T09:10:07.270Z,5.42
2023-02-27T09:12:33.813Z,5.43
2023-02-27T09:15:01.530Z,5.55
2023-02-27T09:17:27.987Z,5.67
2023-02-27T09:19:57.413Z,5.49
2023-02-27T09:22:24.137Z,5.52
2023-02-27T09:24:50.592Z,5.73
2023-02-27T09:27:17.154Z,5.75
2023-02-27T09:29:44.058Z,5.72
2023-02-27T09:32:11.903Z,5.77
2023-02-27T09:34:38.416Z,5.88
2023-02-27T09:37:04.937Z,5.96
2023-02-27T09:39:31.530Z,5.90
2023-02-27T09:42:06.693Z,5.96
2023-02-27T09:44:47.414Z,6.21
2023-02-27T09:47:16.412Z,5.96
2023-02-27T09:49:56.371Z,5.93
2023-02-27T09:52:24.375Z,5.99
2023-02-27T09:54:50.961Z,6.17
2023-02-27T09:57:31.636Z,6.08
2023-02-27T10:00:02.489Z,6.09
2023-02-27T10:02:39.157Z,6.25
2023-02-27T10:05:05.841Z,6.27
2023-02-27T10:07:53.792Z,6.25
2023-02-27T10:10:39.646Z,6.35
2023-02-27T10:13:06.106Z,6.45
2023-02-27T10:15:41.691Z,6.36
2023-02-27T10:18:25.461Z,6.39
2023-02-27T10:20:58.811Z,6.59
2023-02-27T10:23:33.065Z,6.54
2023-02-27T10:26:01.029Z,6.51
2023-02-27T10:28:28.047Z,6.61
2023-02-27T10:30:56.764Z,6.69
2023-02-27T10:33:31.259Z,6.53
2023-02-27T10:35:57.958Z,6.57
2023-02-27T10:38:37.428Z,6.78
2023-02-27T10:41:04.046Z,6.70
2023-02-27T10:43:30.492Z,6.64
2023-02-27T10:46:01.154Z,6.80
2023-02-27T10:48:28.815Z,6.77
2023-02-27T10:51:15.756Z,6.79
2023-02-27T10:53:42.529Z,6.88
2023-02-27T10:56:13.785Z,6.88
2023-02-27T10:58:40.552Z,7.04
2023-02-27T11:01:09.019Z,6.91
2023-02-27T11:03:43.235Z,7.05
2023-02-27T11:06:12.625Z,6.98
2023-02-27T11:08:39.721Z,7.01
2023-02-27T11:11:09.422Z,7.09
2023-02-27T11:13:41.881Z,7.01
2023-02-27T11:16:14.471Z,7.11
2023-02-27T11:18:43.405Z,7.01
2023-02-27T11:21:15.536Z,7.15
2023-02-27T11:24:02.269Z,7.18
2023-02-27T11:26:38.994Z,7.15
2023-02-27T11:29:18.398Z,7.24
2023-02-27T11:31:50.820Z,7.10
2023-02-27T11:34:37.865Z,7.32
2023-02-27T11:37:04.280Z,7.13
2023-02-27T11:39:33.606Z,7.17
2023-02-27T11:42:08.546Z,7.18
2023-02-27T11:44:49.841Z,7.09
2023-02-27T11:47:25.445Z,7.20
2023-02-27T11:50:07.169Z,7.00
2023-02-27T11:52:34.120Z,7.16
2023-02-27T11:55:03.293Z,7.09
2023-02-27T11:57:33.461Z,7.03
2023-02-27T12:00:02.842Z,7.02
2023-02-27T12:02:29.358Z,6.98
2023-02-27T12:05:04.108Z,6.98
2023-02-27T12:07:30.532Z,6.89
2023-02-27T12:10:03.251Z,6.96
2023-02-27T12:12:34.848Z,6.97
2023-02-27T12:15:14.522Z,7.05
2023-02-27T12:17:46.750Z,7.08
2023-02-27T12:20:15.026Z,7.08
2023-02-27T12:22:45.850Z,7.12
2023-02-27T12:25:15.616Z,7.16
2023-02-27T12:28:00.379Z,7.08
2023-02-27T12:30:29.335Z,7.11
2023-02-27T12:33:01.821Z,7.13
2023-02-27T12:35:30.217Z,7.21
2023-02-27T12:37:57.627Z,7.21
2023-02-27T12:40:31.654Z,7.25
2023-02-27T12:43:02.791Z,7.25
2023-02-27T12:45:41.510Z,7.24
2023-02-27T12:48:13.859Z,7.18
2023-02-27T12:50:54.594Z,7.30
2023-02-27T12:53:21.025Z,7.23
2023-02-27T12:55:52.443Z,7.32
2023-02-27T12:58:18.894Z,7.39
2023-02-27T13:00:51.512Z,7.35
2023-02-27T13:03:24.272Z,7.46
2023-02-27T13:06:23.522Z,7.52
2023-02-27T13:08:50.015Z,7.41
2023-02-27T13:11:23.329Z,7.42
2023-02-27T13:13:49.739Z,7.40
2023-02-27T13:16:31.339Z,7.43
2023-02-27T13:19:04.598Z,7.49
2023-02-27T13:21:35.213Z,7.47
2023-02-27T13:24:19.766Z,7.48
2023-02-27T13:26:55.814Z,7.59
2023-02-27T13:29:24.077Z,7.58
2023-02-27T15:38:04.601Z,8.01
2023-02-27T15:46:58.540Z,7.66
2023-02-27T15:49:27.307Z,7.52
2023-02-27T15:52:01.645Z,6.53
2023-02-27T15:54:34.815Z,6.18
2023-02-27T15:57:03.567Z,6.20
2023-02-27T15:59:33.797Z,5.71
2023-02-27T16:02:00.914Z,5.62
2023-02-27T16:04:28.516Z,5.91
2023-02-27T16:06:58.685Z,5.96
2023-02-27T16:09:28.952Z,5.39
2023-02-27T16:12:09.982Z,4.93
2023-02-27T16:14:37.487Z,4.53
2023-02-27T16:17:04.310Z,4.19
2023-02-27T16:19:32.593Z,3.95
2023-02-27T16:22:04.134Z,3.67
2023-02-27T16:24:31.730Z,3.56
2023-02-27T16:26:59.516Z,3.74
2023-02-27T16:29:34.790Z,3.70
2023-02-27T16:32:01.653Z,3.61
2023-02-27T16:34:44.334Z,3.50
2023-02-27T16:37:23.000Z,3.73
2023-02-27T16:39:52.380Z,3.59
2023-02-27T16:42:19.134Z,3.48
2023-02-27T16:44:45.816Z,3.55
2023-02-27T16:47:12.716Z,3.47
2023-02-27T16:49:40.462Z,3.24
2023-02-27T16:52:08.795Z,3.38
2023-02-27T16:54:35.552Z,3.31
2023-02-27T16:57:02.370Z,3.48
2023-02-27T16:59:36.599Z,3.34
2023-02-27T17:02:08.746Z,3.41
2023-02-27T17:04:36.347Z,3.62
2023-02-27T17:07:06.348Z,3.23
2023-02-27T17:09:33.189Z,2.68
2023-02-27T17:11:59.640Z,2.62
2023-02-27T17:14:27.502Z,2.60
2023-02-27T17:16:54.067Z,2.31
2023-02-27T17:19:23.673Z,2.13
2023-02-27T17:21:50.980Z,1.92
2023-02-27T17:24:17.594Z,2.06
2023-02-27T17:26:44.318Z,1.98
2023-02-27T17:29:11.058Z,1.80
2023-02-27T17:31:37.668Z,1.69
2023-02-27T17:34:05.150Z,1.75
2023-02-27T17:36:31.876Z,2.31
2023-02-27T17:39:00.782Z,2.06
2023-02-27T17:41:27.778Z,1.74
2023-02-27T17:43:55.955Z,2.01
2023-02-27T17:46:24.942Z,2.50
2023-02-27T17:48:53.199Z,2.78
2023-02-27T17:51:19.883Z,2.75
2023-02-27T17:53:46.652Z,2.95
2023-02-27T17:56:13.804Z,3.08
2023-02-27T17:58:40.896Z,3.29
2023-02-27T18:01:08.606Z,3.42
2023-02-27T18:03:36.993Z,3.55
2023-02-27T18:06:03.976Z,3.65
2023-02-27T18:08:31.569Z,3.72
2023-02-27T18:10:58.681Z,3.96
2023-02-27T18:13:27.309Z,4.15
2023-02-27T18:15:54.992Z,4.36
2023-02-27T18:18:22.103Z,4.49
2023-02-27T18:21:00.026Z,4.48
2023-02-27T18:23:26.534Z,4.30
2023-02-27T18:25:53.608Z,4.31
2023-02-27T18:31:05.382Z,4.23
2023-02-27T18:33:32.177Z,4.30
2023-02-27T18:35:58.814Z,4.27
2023-02-27T18:38:25.538Z,4.25
2023-02-27T18:40:52.174Z,4.19
2023-02-27T18:43:19.005Z,4.27
2023-02-27T18:45:45.949Z,4.36
2023-02-27T18:48:12.766Z,4.33
2023-02-27T18:50:40.791Z,4.20
2023-02-27T18:53:07.396Z,4.19
2023-02-27T18:55:34.812Z,4.15
2023-02-27T18:58:01.245Z,4.22
2023-02-27T19:00:27.848Z,4.28
2023-02-27T19:02:54.483Z,4.49
2023-02-27T19:05:21.057Z,4.55
2023-02-27T19:07:48.877Z,4.56
2023-02-27T19:10:15.311Z,4.78
2023-02-27T19:12:42.533Z,4.68
2023-02-27T19:15:09.624Z,4.58
2023-02-27T19:17:36.312Z,4.58
2023-02-27T19:20:05.502Z,4.71
2023-02-27T19:22:32.435Z,4.59
2023-02-27T19:24:59.003Z,4.56
2023-02-27T19:27:25.553Z,4.66
2023-02-27T19:29:52.462Z,4.63
2023-02-27T19:32:19.456Z,4.44
2023-02-27T19:34:47.500Z,4.55
2023-02-27T19:37:18.014Z,4.64
2023-02-27T19:39:44.848Z,4.48
2023-02-27T19:42:11.631Z,4.27
2023-02-27T19:44:40.285Z,4.22
2023-02-27T19:47:07.012Z,4.21
2023-02-27T19:49:35.090Z,3.85
2023-02-27T19:52:04.365Z,3.47
2023-02-27T19:54:30.967Z,3.42
2023-02-27T19:56:57.502Z,3.32
2023-02-27T19:59:26.202Z,2.93
2023-02-27T20:01:52.904Z,2.76
2023-02-27T20:04:19.694Z,2.88
2023-02-27T20:06:46.995Z,2.54
2023-02-27T20:09:14.931Z,2.57
2023-02-27T20:11:45.206Z,2.96
2023-02-27T20:14:12.490Z,3.32
2023-02-27T20:16:41.082Z,3.42
2023-02-27T20:19:10.544Z,3.47
2023-02-27T20:21:38.208Z,3.48
2023-02-27T20:24:06.359Z,3.64
2023-02-27T20:26:34.189Z,3.57
2023-02-27T20:29:07.028Z,3.35
2023-02-27T20:31:35.767Z,3.20
2023-02-27T20:34:03.731Z,3.23
2023-02-27T20:36:31.431Z,2.92
2023-02-27T20:38:59.353Z,2.68
2023-02-27T20:41:29.356Z,2.49
2023-02-27T20:43:56.559Z,2.61
2023-02-27T20:46:24.804Z,2.50
2023-02-27T20:48:51.578Z,2.43
2023-02-27T20:51:19.992Z,2.70
2023-02-27T20:53:48.237Z,2.88
2023-02-27T20:56:15.387Z,2.74
2023-02-27T20:58:43.352Z,2.59
2023-02-27T21:01:11.082Z,2.53
2023-02-27T21:03:41.938Z,2.64
2023-02-27T21:06:10.123Z,2.57
2023-02-27T21:08:37.501Z,2.53
2023-02-27T21:11:10.949Z,2.61
2023-02-27T21:13:39.416Z,2.56
2023-02-27T21:16:07.536Z,2.83
2023-02-27T21:18:34.303Z,2.81
2023-02-27T21:21:06.370Z,2.79
2023-02-27T21:23:34.644Z,2.85
2023-02-27T21:26:04.414Z,2.88
2023-02-27T21:58:18.985Z,1.48
2023-02-27T22:00:46.907Z,1.35
2023-02-27T22:03:13.711Z,1.33
2023-02-27T22:05:43.897Z,1.49
2023-02-27T22:08:10.731Z,1.28
2023-02-27T22:10:45.918Z,1.22
2023-02-27T22:13:13.614Z,0.91
2023-02-27T22:15:40.347Z,1.02
2023-02-27T22:18:07.339Z,1.08
2023-02-27T22:20:34.070Z,1.28
2023-02-27T22:23:02.277Z,1.57
2023-02-27T22:25:30.221Z,1.95
2023-02-27T22:27:56.935Z,2.10
2023-02-27T22:30:23.562Z,2.19
2023-02-27T22:32:50.089Z,2.28
2023-02-27T22:35:16.700Z,2.13
2023-02-27T22:37:45.021Z,2.07
2023-02-27T22:40:13.318Z,2.16
2023-02-27T22:42:39.970Z,1.93
2023-02-27T22:45:06.694Z,1.93
2023-02-27T22:47:33.362Z,2.08
2023-02-27T22:50:00.530Z,2.34
2023-02-27T22:52:27.063Z,2.36
2023-02-27T22:54:53.673Z,2.48
2023-02-27T22:57:20.174Z,2.45
2023-02-27T22:59:52.086Z,2.35
2023-02-27T23:02:18.574Z,2.35
2023-02-27T23:04:45.061Z,2.15
2023-02-27T23:07:11.621Z,2.11
2023-02-27T23:09:38.105Z,2.06
2023-02-27T23:12:04.679Z,2.31
2023-02-27T23:14:31.377Z,2.22
2023-02-27T23:16:58.931Z,2.09
2023-02-27T23:19:25.392Z,1.93
2023-02-27T23:21:51.894Z,1.90
2023-02-27T23:24:20.544Z,2.10
2023-02-27T23:26:48.659Z,1.92
2023-02-27T23:29:15.409Z,1.91
2023-02-27T23:31:42.450Z,1.88
2023-02-27T23:34:09.009Z,1.96
2023-02-27T23:36:36.591Z,2.14
2023-02-27T23:39:03.938Z,1.92
2023-02-27T23:41:31.116Z,1.86
2023-02-27T23:43:57.783Z,1.85
2023-02-27T23:46:24.349Z,1.94
2023-02-27T23:48:50.878Z,2.14
2023-02-27T23:51:18.492Z,2.06
2023-02-27T23:53:46.137Z,1.88
2023-02-27T23:56:18.535Z,1.98
2023-02-27T23:58:47.407Z,1.90
